Time;durP1;ratioP1;P1;durP2;ratioP2;P2;SDS_P1;SDS_P2;PMS_P1;PMS_P2;Temp;Humidity;BMP_temperature;BMP_pressure;BME280_temperature;BME280_humidity;BME280_pressure;Samples;Min_cycle;Max_cycle;Signal;HPM_P1;HPM_P2
2024/03/07 00:00:53;;;;;;;11.10;2.03;;;23.70;47.70;;;;;;5094263;28;20069;-50
2024/03/07 00:03:20;;;;;;;13.10;1.80;;;24.00;47.40;;;;;;5101786;28;20099;-53
2024/03/07 00:05:46;;;;;;;13.15;2.38;;;24.10;47.30;;;;;;5114411;27;20582;-50
2024/03/07 00:08:13;;;;;;;18.95;2.08;;;24.10;47.50;;;;;;5103260;28;20539;-50
2024/03/07 00:10:39;;;;;;;13.70;1.95;;;23.80;47.30;;;;;;5094386;28;20540;-51
2024/03/07 00:13:06;;;;;;;17.00;2.15;;;23.70;47.50;;;;;;5100503;28;20065;-52
2024/03/07 00:15:32;;;;;;;11.05;2.58;;;23.70;47.80;;;;;;5111385;28;20076;-48
2024/03/07 00:18:00;;;;;;;11.48;2.50;;;23.50;48.10;;;;;;5112121;28;20498;-48
2024/03/07 00:20:27;;;;;;;13.48;1.88;;;23.40;48.90;;;;;;5110344;28;20110;-48
2024/03/07 00:22:53;;;;;;;16.50;1.92;;;23.40;48.60;;;;;;5106959;28;20109;-49
2024/03/07 00:25:20;;;;;;;21.77;2.10;;;23.40;48.80;;;;;;5113244;28;20517;-50
2024/03/07 00:27:46;;;;;;;24.58;2.50;;;23.30;49.20;;;;;;5111746;28;20096;-51
2024/03/07 00:30:13;;;;;;;19.00;1.90;;;23.20;49.60;;;;;;5108303;28;20099;-60
2024/03/07 00:32:40;;;;;;;7.70;2.17;;;23.10;49.70;;;;;;5114153;27;20064;-49
2024/03/07 00:35:10;;;;;;;17.75;2.33;;;23.10;49.70;;;;;;5113852;28;20211;-49
2024/03/07 00:37:36;;;;;;;27.58;2.40;;;23.10;50.10;;;;;;5113912;28;20114;-50
2024/03/07 00:40:03;;;;;;;20.85;1.98;;;22.90;50.40;;;;;;5109872;28;20068;-48
2024/03/07 00:42:30;;;;;;;22.23;2.20;;;22.90;50.80;;;;;;5112334;28;20079;-49
2024/03/07 00:44:57;;;;;;;27.88;4.05;;;22.80;50.90;;;;;;5113273;28;20091;-51
2024/03/07 00:47:23;;;;;;;26.75;3.30;;;22.80;51.00;;;;;;5110230;28;20147;-48
2024/03/07 00:49:50;;;;;;;48.17;3.38;;;22.70;51.40;;;;;;5113300;28;20103;-49
2024/03/07 00:52:16;;;;;;;30.02;3.50;;;22.60;51.80;;;;;;5113562;28;20514;-49
2024/03/07 00:54:43;;;;;;;34.67;2.50;;;22.60;52.40;;;;;;5109279;28;20080;-51
2024/03/07 00:57:09;;;;;;;22.50;2.60;;;22.30;53.10;;;;;;5094888;28;20081;-48
2024/03/07 00:59:36;;;;;;;28.77;3.03;;;22.30;54.20;;;;;;5109661;28;20125;-52
2024/03/07 01:02:03;;;;;;;27.95;2.55;;;22.20;53.90;;;;;;5111147;28;20068;-53
2024/03/07 01:04:33;;;;;;;18.73;3.10;;;22.00;54.20;;;;;;5108359;28;20183;-55
2024/03/07 01:07:00;;;;;;;22.48;2.78;;;21.90;54.60;;;;;;5109983;28;20068;-48
2024/03/07 01:09:30;;;;;;;17.08;2.17;;;21.90;54.90;;;;;;5111404;28;20159;-50
2024/03/07 01:11:58;;;;;;;15.18;2.10;;;21.80;55.00;;;;;;5099083;28;20073;-50
2024/03/07 01:14:25;;;;;;;10.55;1.30;;;21.80;55.20;;;;;;5092547;28;20064;-50
2024/03/07 01:16:51;;;;;;;30.00;2.47;;;21.80;55.00;;;;;;5101211;28;20064;-49
2024/03/07 01:19:18;;;;;;;11.52;2.08;;;21.80;55.00;;;;;;5109072;28;20130;-48
2024/03/07 01:21:45;;;;;;;15.98;1.80;;;21.80;55.00;;;;;;5098966;28;20152;-56
2024/03/07 01:24:11;;;;;;;20.00;2.13;;;21.80;55.10;;;;;;5107475;28;20107;-51
2024/03/07 01:26:38;;;;;;;10.50;1.67;;;21.70;55.30;;;;;;5108470;28;20213;-49
2024/03/07 01:29:06;;;;;;;7.22;1.83;;;21.60;56.00;;;;;;5107026;28;20072;-48
2024/03/07 01:31:33;;;;;;;11.93;1.80;;;21.60;55.40;;;;;;5105287;28;20076;-54
2024/03/07 01:33:59;;;;;;;24.48;12.15;;;21.50;55.60;;;;;;5094810;28;20065;-49
2024/03/07 01:36:26;;;;;;;8.18;1.85;;;21.40;55.70;;;;;;5102582;28;20514;-47
2024/03/07 01:38:53;;;;;;;7.47;1.83;;;21.40;55.90;;;;;;5091396;28;20068;-54
2024/03/07 01:41:19;;;;;;;8.50;1.38;;;21.40;56.30;;;;;;5092314;28;20067;-47
2024/03/07 01:43:46;;;;;;;8.63;1.75;;;21.30;56.50;;;;;;5103765;28;20104;-49
2024/03/07 01:46:13;;;;;;;5.70;1.30;;;21.30;56.70;;;;;;5102068;28;20484;-49
2024/03/07 01:48:40;;;;;;;10.10;1.20;;;21.20;56.80;;;;;;5107088;28;20079;-49
2024/03/07 01:51:08;;;;;;;4.63;1.20;;;21.10;57.00;;;;;;5112284;28;20129;-48
2024/03/07 01:53:35;;;;;;;6.45;1.42;;;21.10;57.00;;;;;;5112355;28;20186;-48
2024/03/07 01:56:03;;;;;;;8.20;1.42;;;21.10;57.00;;;;;;5107725;28;20129;-50
2024/03/07 01:58:33;;;;;;;5.93;1.13;;;21.10;56.70;;;;;;5112477;28;20065;-50
2024/03/07 02:01:00;;;;;;;11.48;1.50;;;21.10;56.50;;;;;;5106595;28;21020;-53
2024/03/07 02:03:27;;;;;;;10.00;1.30;;;21.00;56.20;;;;;;5106079;28;20099;-51
2024/03/07 02:05:53;;;;;;;8.90;1.80;;;21.00;56.20;;;;;;5097174;28;20072;-48
2024/03/07 02:08:20;;;;;;;4.88;1.33;;;21.00;55.80;;;;;;5107554;28;20385;-51
2024/03/07 02:10:46;;;;;;;2.55;1.25;;;20.90;55.80;;;;;;5101969;28;20079;-49
2024/03/07 02:13:13;;;;;;;4.65;1.33;;;20.90;55.20;;;;;;5109527;28;20072;-50
2024/03/07 02:15:39;;;;;;;7.18;2.22;;;20.90;55.30;;;;;;5102142;28;20068;-48
2024/03/07 02:18:06;;;;;;;12.88;1.92;;;20.80;56.10;;;;;;5109794;28;20510;-52
2024/03/07 02:20:32;;;;;;;7.50;1.45;;;20.70;57.10;;;;;;5109872;28;20550;-51
2024/03/07 02:22:59;;;;;;;5.45;1.30;;;20.50;58.60;;;;;;5111225;28;20090;-50
2024/03/07 02:25:25;;;;;;;4.97;1.20;;;20.50;60.10;;;;;;5112102;28;20071;-51
2024/03/07 02:27:52;;;;;;;9.02;1.20;;;20.40;60.80;;;;;;5112200;28;20390;-49
2024/03/07 02:30:18;;;;;;;9.40;1.08;;;20.40;60.80;;;;;;5108147;28;20076;-49
2024/03/07 02:32:51;;;;;;;11.27;1.10;;;20.40;60.60;;;;;;5110005;28;20075;-48
2024/03/07 02:35:18;;;;;;;8.38;1.40;;;20.30;60.40;;;;;;5111995;28;20145;-50
2024/03/07 02:37:46;;;;;;;11.27;1.15;;;20.30;59.80;;;;;;5113308;28;20068;-48
2024/03/07 02:40:13;;;;;;;4.43;0.90;;;20.30;59.30;;;;;;5116026;28;20075;-49
2024/03/07 02:42:40;;;;;;;6.45;1.15;;;20.40;58.80;;;;;;5114517;28;20156;-48
2024/03/07 02:45:08;;;;;;;6.90;1.00;;;20.40;58.00;;;;;;5114728;28;20566;-53
2024/03/07 02:47:36;;;;;;;14.75;1.73;;;20.40;57.30;;;;;;5114265;28;20567;-52
2024/03/07 02:50:02;;;;;;;11.32;1.30;;;20.50;56.40;;;;;;5111933;28;20515;-52
2024/03/07 02:52:29;;;;;;;9.55;1.35;;;20.50;56.10;;;;;;5106188;28;20153;-50
2024/03/07 02:54:55;;;;;;;21.67;1.98;;;20.50;55.80;;;;;;5095401;28;20068;-49
2024/03/07 02:57:22;;;;;;;19.60;2.00;;;20.50;55.60;;;;;;5106886;28;20064;-52
2024/03/07 02:59:48;;;;;;;14.48;2.00;;;20.40;55.30;;;;;;5114413;28;20072;-47
2024/03/07 03:02:15;;;;;;;10.18;1.90;;;20.30;55.00;;;;;;5113207;28;20178;-49
2024/03/07 03:04:41;;;;;;;19.67;1.73;;;20.20;54.90;;;;;;5113236;28;20127;-51
2024/03/07 03:07:08;;;;;;;10.70;1.30;;;20.20;54.90;;;;;;5116048;28;20072;-48
2024/03/07 03:09:34;;;;;;;11.35;1.80;;;20.10;55.20;;;;;;5115849;28;20173;-49
2024/03/07 03:12:01;;;;;;;11.80;1.40;;;19.90;55.10;;;;;;5112121;28;20080;-50
2024/03/07 03:14:27;;;;;;;12.40;1.70;;;19.90;55.40;;;;;;5095000;28;20155;-52
2024/03/07 03:16:56;;;;;;;17.08;2.08;;;19.80;56.10;;;;;;5106848;27;20072;-52
2024/03/07 03:19:23;;;;;;;6.68;1.42;;;19.60;56.70;;;;;;5110322;28;20102;-50
2024/03/07 03:21:49;;;;;;;6.60;1.70;;;19.70;57.20;;;;;;5098772;28;20080;-49
2024/03/07 03:24:16;;;;;;;9.88;1.58;;;19.60;58.10;;;;;;5113635;27;20096;-51
2024/03/07 03:26:44;;;;;;;5.93;1.60;;;19.40;58.70;;;;;;5113332;28;20077;-48
2024/03/07 03:29:11;;;;;;;8.25;1.67;;;19.40;59.30;;;;;;5113846;28;20155;-52
2024/03/07 03:31:38;;;;;;;6.50;1.75;;;19.40;61.10;;;;;;5111622;28;20421;-51
2024/03/07 03:34:05;;;;;;;8.98;1.83;;;19.30;62.60;;;;;;5114496;28;20068;-49
2024/03/07 03:36:31;;;;;;;3.15;1.48;;;19.10;64.80;;;;;;5111945;28;20500;-52
2024/03/07 03:38:57;;;;;;;4.70;1.13;;;18.90;70.20;;;;;;5112222;28;20083;-50
2024/03/07 03:41:24;;;;;;;6.35;1.58;;;18.50;70.80;;;;;;5114620;28;20533;-48
2024/03/07 03:43:51;;;;;;;13.85;1.95;;;18.40;71.30;;;;;;5104339;28;20104;-47
2024/03/07 03:46:18;;;;;;;14.18;1.70;;;18.20;72.00;;;;;;5093355;28;20068;-53
2024/03/07 03:48:44;;;;;;;2.42;1.60;;;18.20;73.00;;;;;;5094272;28;20056;-47
2024/03/07 03:51:12;;;;;;;4.63;1.48;;;18.10;73.10;;;;;;5100853;28;20072;-47
2024/03/07 03:53:40;;;;;;;3.55;1.25;;;18.00;73.00;;;;;;5111399;28;20567;-52
2024/03/07 03:56:11;;;;;;;6.55;2.00;;;18.00;74.30;;;;;;5112349;28;20125;-59
2024/03/07 03:58:40;;;;;;;6.00;1.40;;;18.00;74.20;;;;;;5112816;28;20080;-55
2024/03/07 04:01:12;;;;;;;2.25;1.08;;;17.90;74.50;;;;;;5114648;28;20080;-60
2024/03/07 04:03:39;;;;;;;3.35;1.48;;;17.90;73.80;;;;;;5114623;28;20099;-54
2024/03/07 04:06:06;;;;;;;7.97;2.55;;;17.90;73.90;;;;;;5114314;28;20459;-56
2024/03/07 04:08:34;;;;;;;8.05;2.05;;;17.90;73.90;;;;;;5114456;28;20105;-52
2024/03/07 04:11:01;;;;;;;2.85;1.15;;;17.90;74.40;;;;;;5111002;28;20076;-57
2024/03/07 04:13:28;;;;;;;5.95;1.15;;;17.90;73.50;;;;;;5110628;28;20072;-54
2024/03/07 04:15:54;;;;;;;3.53;1.00;;;17.80;73.00;;;;;;5133181;27;20083;-54
2024/03/07 04:18:21;;;;;;;4.18;1.15;;;17.90;73.10;;;;;;5133308;27;20090;-58
2024/03/07 04:20:49;;;;;;;6.15;0.80;;;17.90;72.50;;;;;;5093885;27;20176;-54
2024/03/07 04:23:15;;;;;;;2.95;1.10;;;17.80;72.50;;;;;;5093699;28;20093;-59
2024/03/07 04:25:41;;;;;;;1.58;0.82;;;17.80;72.10;;;;;;5108386;28;20063;-57
2024/03/07 04:28:08;;;;;;;2.35;1.40;;;17.80;71.20;;;;;;5111951;28;20149;-56
2024/03/07 04:30:34;;;;;;;5.75;1.73;;;17.80;71.10;;;;;;5113681;28;20517;-55
2024/03/07 04:33:01;;;;;;;3.33;1.35;;;17.80;71.10;;;;;;5113954;28;20064;-56
2024/03/07 04:35:27;;;;;;;3.35;1.25;;;17.90;71.00;;;;;;5113969;28;20056;-55
2024/03/07 04:37:54;;;;;;;4.78;0.98;;;17.90;70.60;;;;;;5110283;27;20505;-56
2024/03/07 04:40:21;;;;;;;3.45;1.10;;;18.00;70.20;;;;;;5134739;27;20075;-55
2024/03/07 04:42:49;;;;;;;4.95;1.15;;;18.10;70.10;;;;;;5118584;27;20155;-52
2024/03/07 04:45:16;;;;;;;1.02;0.90;;;18.10;69.50;;;;;;5113837;28;20107;-55
2024/03/07 04:47:46;;;;;;;6.82;1.45;;;18.10;68.90;;;;;;5098993;28;20073;-55
2024/03/07 04:50:16;;;;;;;1.77;0.80;;;18.20;68.70;;;;;;5093026;28;20111;-55
2024/03/07 04:52:44;;;;;;;0.80;0.70;;;18.20;68.10;;;;;;5104787;27;20064;-53
2024/03/07 04:55:10;;;;;;;1.40;0.90;;;18.30;67.90;;;;;;5111213;27;20079;-56
2024/03/07 04:57:39;;;;;;;2.38;0.70;;;18.30;68.20;;;;;;5110097;28;20072;-55
2024/03/07 05:00:18;;;;;;;19.65;16.42;;;18.30;68.10;;;;;;5112652;28;20068;-54
2024/03/07 05:02:46;;;;;;;1.95;1.10;;;18.40;68.10;;;;;;5115022;27;20064;-55
2024/03/07 05:05:13;;;;;;;3.05;1.20;;;18.40;68.30;;;;;;5127875;27;20108;-52
2024/03/07 05:07:40;;;;;;;5.00;1.10;;;18.40;68.40;;;;;;5123131;27;20067;-54
2024/03/07 05:10:08;;;;;;;3.53;1.05;;;18.50;68.80;;;;;;5123916;27;20063;-56
2024/03/07 05:12:35;;;;;;;2.65;0.93;;;18.50;69.10;;;;;;5128045;27;20110;-55
2024/03/07 05:15:04;;;;;;;3.63;1.10;;;18.50;69.50;;;;;;5111865;28;20514;-54
2024/03/07 05:17:34;;;;;;;2.08;0.90;;;18.40;70.60;;;;;;5113097;28;20158;-53
2024/03/07 05:20:00;;;;;;;7.15;1.00;;;18.30;72.70;;;;;;5112796;28;20156;-55
2024/03/07 05:22:26;;;;;;;2.42;1.00;;;18.20;73.30;;;;;;5110628;28;20076;-54
2024/03/07 05:24:53;;;;;;;2.92;1.00;;;18.00;74.30;;;;;;5109745;28;20100;-55
2024/03/07 05:27:21;;;;;;;2.65;0.80;;;18.00;74.90;;;;;;5102020;28;20531;-58
2024/03/07 05:29:47;;;;;;;2.28;1.00;;;18.00;75.10;;;;;;5119013;27;20603;-55
2024/03/07 05:32:25;;;;;;;4.68;1.05;;;17.90;76.10;;;;;;5125277;27;20151;-57
2024/03/07 05:34:55;;;;;;;4.18;1.05;;;17.80;78.10;;;;;;5092290;28;20072;-56
2024/03/07 05:37:21;;;;;;;3.08;1.38;;;17.70;79.10;;;;;;5092044;28;20163;-56
2024/03/07 05:39:49;;;;;;;3.25;1.80;;;17.70;79.80;;;;;;5092152;28;20096;-55
2024/03/07 05:42:15;;;;;;;3.10;1.30;;;17.60;80.40;;;;;;5095696;28;20068;-54
2024/03/07 05:44:42;;;;;;;2.13;0.85;;;17.60;81.20;;;;;;5112332;28;20100;-54
2024/03/07 05:47:10;;;;;;;1.08;0.70;;;17.60;81.10;;;;;;5111257;28;20405;-55
2024/03/07 05:49:37;;;;;;;3.83;0.90;;;17.50;81.70;;;;;;5112653;28;20510;-56
2024/03/07 05:52:05;;;;;;;3.28;0.80;;;17.50;85.40;;;;;;5109669;28;20068;-55
2024/03/07 05:54:33;;;;;;;9.23;0.90;;;17.20;88.70;;;;;;5115998;27;20182;-55
2024/03/07 05:56:59;;;;;;;6.07;0.98;;;17.10;91.50;;;;;;5112151;28;20402;-54
2024/03/07 05:59:30;;;;;;;3.17;0.98;;;16.90;92.40;;;;;;5112382;28;20076;-51
2024/03/07 06:01:57;;;;;;;1.40;0.80;;;16.80;92.60;;;;;;5112481;27;20428;-56
2024/03/07 06:04:23;;;;;;;4.05;1.00;;;16.80;92.80;;;;;;5121254;27;20106;-54
2024/03/07 06:06:50;;;;;;;4.20;1.70;;;16.80;92.90;;;;;;5110600;28;20072;-54
2024/03/07 06:09:21;;;;;;;4.25;0.93;;;16.80;92.20;;;;;;5109010;28;20174;-53
2024/03/07 06:11:48;;;;;;;3.67;1.08;;;16.90;92.40;;;;;;5109619;28;20068;-54
2024/03/07 06:14:16;;;;;;;1.77;1.10;;;17.00;92.80;;;;;;5112065;28;20107;-52
2024/03/07 06:16:42;;;;;;;1.73;0.98;;;16.90;92.60;;;;;;5112211;28;20060;-56
2024/03/07 06:19:09;;;;;;;2.70;0.98;;;17.00;92.60;;;;;;5096118;28;20103;-54
2024/03/07 06:21:39;;;;;;;3.08;1.00;;;16.90;92.90;;;;;;5091337;28;20637;-51
2024/03/07 06:24:07;;;;;;;1.92;1.00;;;16.90;92.90;;;;;;5099799;28;20148;-55
2024/03/07 06:27:26;;;;;;;5.28;2.00;;;16.90;93.10;;;;;;5112315;28;20151;-55
2024/03/07 06:29:24;;;;;;;5.95;2.08;;;16.90;93.40;;;;;;5105864;28;20106;-52
2024/03/07 06:31:53;;;;;;;3.72;0.80;;;16.80;93.50;;;;;;5109772;28;20488;-55
2024/03/07 06:34:20;;;;;;;4.65;0.82;;;16.80;93.60;;;;;;5106834;28;20068;-52
2024/03/07 06:36:46;;;;;;;2.55;0.90;;;16.80;93.70;;;;;;5100438;28;20073;-54
2024/03/07 06:39:13;;;;;;;2.15;0.80;;;16.70;93.80;;;;;;5108212;28;20560;-54
2024/03/07 06:41:40;;;;;;;2.35;0.70;;;16.70;93.90;;;;;;5105620;28;20167;-54
2024/03/07 06:44:07;;;;;;;2.05;0.50;;;16.70;93.80;;;;;;5102078;28;20091;-51
2024/03/07 06:46:34;;;;;;;4.45;1.10;;;16.70;94.00;;;;;;5108674;28;20129;-52
2024/03/07 06:49:00;;;;;;;2.83;0.80;;;16.70;94.20;;;;;;5090835;28;20094;-54
2024/03/07 06:51:27;;;;;;;0.98;0.60;;;16.70;94.00;;;;;;5107620;28;20071;-54
2024/03/07 06:53:54;;;;;;;2.85;0.73;;;16.70;94.10;;;;;;5098444;28;20118;-54
2024/03/07 06:56:21;;;;;;;2.05;0.75;;;16.70;94.20;;;;;;5106094;28;20072;-53
2024/03/07 06:58:48;;;;;;;2.72;0.80;;;16.60;94.00;;;;;;5108400;28;20082;-54
2024/03/07 07:01:18;;;;;;;4.72;0.80;;;16.70;94.20;;;;;;5104406;28;20076;-54
2024/03/07 07:03:45;;;;;;;2.20;0.88;;;16.60;94.10;;;;;;5101708;28;20096;-47
2024/03/07 07:06:12;;;;;;;2.22;0.73;;;16.80;94.30;;;;;;5094257;28;20076;-47
2024/03/07 07:08:38;;;;;;;25.05;18.10;;;17.00;93.80;;;;;;5106885;28;20756;-48
2024/03/07 07:11:05;;;;;;;2.35;0.90;;;17.10;93.20;;;;;;5098466;28;20147;-48
2024/03/07 07:13:31;;;;;;;1.13;0.60;;;17.10;93.10;;;;;;5098831;28;20541;-46
2024/03/07 07:15:58;;;;;;;3.42;0.90;;;17.10;92.90;;;;;;5109976;28;20075;-49
2024/03/07 07:18:25;;;;;;;7.00;1.20;;;17.30;92.70;;;;;;5103181;28;20523;-49
2024/03/07 07:20:54;;;;;;;6.18;1.10;;;17.40;92.20;;;;;;5104943;28;20096;-51
2024/03/07 07:23:21;;;;;;;1.90;0.88;;;17.40;92.10;;;;;;5107590;28;20228;-49
2024/03/07 07:25:47;;;;;;;1.65;0.77;;;17.40;92.00;;;;;;5110770;28;20076;-47
2024/03/07 07:28:15;;;;;;;1.40;0.82;;;17.20;92.20;;;;;;5107244;28;20072;-47
2024/03/07 07:30:42;;;;;;;3.78;1.30;;;17.20;92.30;;;;;;5098272;28;20167;-47
2024/03/07 07:33:08;;;;;;;3.67;1.00;;;17.00;92.40;;;;;;5106342;28;20068;-47
2024/03/07 07:35:35;;;;;;;2.05;1.30;;;17.00;92.10;;;;;;5110937;28;20421;-49
2024/03/07 07:38:01;;;;;;;3.65;1.55;;;17.10;91.90;;;;;;5110058;28;20594;-47
2024/03/07 07:40:30;;;;;;;2.95;1.73;;;17.20;91.70;;;;;;5109688;28;20083;-50
2024/03/07 07:42:57;;;;;;;2.15;1.00;;;17.20;91.60;;;;;;5109204;28;20076;-48
2024/03/07 07:45:24;;;;;;;4.78;0.82;;;17.20;91.20;;;;;;5111351;28;20183;-46
2024/03/07 07:47:52;;;;;;;4.28;0.50;;;17.20;91.20;;;;;;5110225;28;20079;-49
2024/03/07 07:50:21;;;;;;;2.97;0.80;;;17.10;91.10;;;;;;5111831;28;20417;-50
2024/03/07 07:52:56;;;;;;;2.40;1.00;;;17.00;91.10;;;;;;5109796;28;20112;-48
2024/03/07 07:55:27;;;;;;;1.20;0.60;;;16.80;91.10;;;;;;5100999;28;20437;-49
2024/03/07 07:57:55;;;;;;;1.55;0.60;;;16.80;90.90;;;;;;5110468;28;20075;-49
2024/03/07 08:00:24;;;;;;;0.50;0.50;;;16.80;90.70;;;;;;5102584;28;20407;-51
2024/03/07 08:02:57;;;;;;;4.80;0.73;;;16.80;90.60;;;;;;5103107;28;20076;-46
2024/03/07 08:05:27;;;;;;;1.67;0.82;;;16.90;90.40;;;;;;5104021;28;20137;-48
2024/03/07 08:08:06;;;;;;;0.80;0.60;;;16.90;90.20;;;;;;5107289;28;20120;-49
2024/03/07 08:10:34;;;;;;;2.25;1.17;;;16.80;90.00;;;;;;5096498;28;20076;-47
2024/03/07 08:13:03;;;;;;;3.10;1.10;;;16.80;89.70;;;;;;5109750;28;20072;-51
2024/03/07 08:15:30;;;;;;;0.93;0.70;;;16.80;88.90;;;;;;5104291;28;20076;-57
2024/03/07 08:17:59;;;;;;;2.20;0.57;;;16.80;89.00;;;;;;5101357;28;20069;-51
2024/03/07 08:20:27;;;;;;;1.40;0.70;;;16.90;88.50;;;;;;5096926;28;20108;-48
2024/03/07 08:22:56;;;;;;;1.35;0.80;;;17.00;88.00;;;;;;5102500;28;20431;-48
2024/03/07 08:25:24;;;;;;;2.97;0.90;;;17.00;87.50;;;;;;5108976;28;20609;-48
2024/03/07 08:27:54;;;;;;;1.80;0.90;;;17.00;87.40;;;;;;5101215;28;20072;-47
2024/03/07 08:30:20;;;;;;;1.10;0.70;;;16.90;87.40;;;;;;5106207;28;20170;-47
2024/03/07 08:32:55;;;;;;;3.22;0.80;;;16.90;86.40;;;;;;5099310;28;20073;-46
2024/03/07 08:35:23;;;;;;;1.70;0.70;;;17.00;85.80;;;;;;5107023;27;20136;-49
2024/03/07 08:37:54;;;;;;;3.15;0.70;;;16.90;85.50;;;;;;5111554;28;20075;-46
2024/03/07 08:40:22;;;;;;;2.67;0.82;;;16.90;85.50;;;;;;5103587;28;20156;-50
2024/03/07 08:42:56;;;;;;;1.92;0.70;;;16.80;86.00;;;;;;5111100;28;20068;-46
2024/03/07 08:45:23;;;;;;;2.13;0.82;;;16.80;86.00;;;;;;5103368;28;20100;-47
2024/03/07 08:47:51;;;;;;;2.63;1.00;;;16.80;85.70;;;;;;5108347;28;20082;-48
2024/03/07 08:50:18;;;;;;;1.83;0.98;;;16.80;85.90;;;;;;5108146;28;20076;-48
2024/03/07 08:52:47;;;;;;;3.28;0.70;;;16.80;85.70;;;;;;5121184;28;20087;-47
2024/03/07 08:55:25;;;;;;;2.58;1.25;;;16.70;85.30;;;;;;5123258;28;20081;-47
2024/03/07 08:57:52;;;;;;;4.82;1.25;;;16.60;84.50;;;;;;5110617;28;20078;-47
2024/03/07 09:00:23;;;;;;;5.47;1.10;;;16.60;83.90;;;;;;5109385;28;20095;-46
2024/03/07 09:03:03;;;;;;;3.58;1.10;;;16.60;83.30;;;;;;5102954;28;20087;-48
2024/03/07 09:05:33;;;;;;;3.95;0.90;;;16.60;81.80;;;;;;5096861;28;20225;-48
2024/03/07 09:07:59;;;;;;;2.05;0.80;;;16.60;81.10;;;;;;5110234;27;20151;-51
2024/03/07 09:10:32;;;;;;;3.05;0.80;;;16.60;81.20;;;;;;5109690;28;20514;-47
2024/03/07 09:12:58;;;;;;;2.17;1.08;;;16.60;80.40;;;;;;5096378;28;20147;-47
2024/03/07 09:15:25;;;;;;;3.92;1.17;;;16.60;80.00;;;;;;5100521;28;20075;-47
2024/03/07 09:17:52;;;;;;;3.15;1.35;;;16.60;79.10;;;;;;5109221;27;20104;-47
2024/03/07 09:20:19;;;;;;;3.08;0.85;;;16.70;78.20;;;;;;5109246;28;20112;-49
2024/03/07 09:22:54;;;;;;;5.00;1.20;;;16.80;78.80;;;;;;5108896;28;20558;-47
2024/03/07 09:25:21;;;;;;;3.25;0.93;;;16.80;77.30;;;;;;5103979;28;20091;-49
2024/03/07 09:27:47;;;;;;;4.90;1.10;;;16.80;77.30;;;;;;5089998;28;20076;-46
2024/03/07 09:30:21;;;;;;;2.15;1.17;;;16.80;77.30;;;;;;5109908;28;20108;-48
2024/03/07 09:32:56;;;;;;;2.95;1.00;;;16.80;77.20;;;;;;5101822;28;20537;-51
2024/03/07 09:35:22;;;;;;;3.40;0.80;;;16.80;77.00;;;;;;5099426;28;20509;-51
2024/03/07 09:37:49;;;;;;;3.30;1.10;;;16.80;77.30;;;;;;5101400;28;20217;-48
2024/03/07 09:40:16;;;;;;;3.00;1.20;;;16.80;77.50;;;;;;5109491;28;20079;-50
2024/03/07 09:42:45;;;;;;;3.85;0.90;;;16.80;77.70;;;;;;5108549;28;20068;-48
2024/03/07 09:45:21;;;;;;;4.13;1.08;;;16.80;77.70;;;;;;5093208;28;20100;-46
2024/03/07 09:47:49;;;;;;;3.35;1.00;;;16.70;78.00;;;;;;5105335;28;20098;-47
2024/03/07 09:50:23;;;;;;;3.97;0.93;;;16.70;78.20;;;;;;5106653;28;20403;-46
2024/03/07 09:52:51;;;;;;;5.60;1.10;;;16.70;78.40;;;;;;5099231;28;20068;-48
2024/03/07 09:55:23;;;;;;;3.67;1.10;;;16.70;78.60;;;;;;5104032;28;20116;-47
2024/03/07 09:57:50;;;;;;;2.92;1.00;;;16.70;78.40;;;;;;5108999;28;20426;-47
2024/03/07 10:00:25;;;;;;;3.67;1.13;;;16.70;78.50;;;;;;5105512;28;20068;-47
2024/03/07 10:03:19;;;;;;;2.63;1.10;;;16.70;78.40;;;;;;5104510;28;20091;-53
2024/03/07 10:05:45;;;;;;;1.80;0.93;;;16.70;78.40;;;;;;5102419;28;20107;-47
2024/03/07 10:08:13;;;;;;;3.20;0.90;;;16.80;78.20;;;;;;5103142;28;20102;-47
2024/03/07 10:10:40;;;;;;;3.70;1.02;;;16.80;78.00;;;;;;5107133;27;20105;-48
2024/03/07 10:13:08;;;;;;;6.13;1.40;;;16.90;78.10;;;;;;5103795;28;20150;-49
2024/03/07 10:15:35;;;;;;;3.30;1.52;;;16.80;78.10;;;;;;5091618;28;20069;-48
2024/03/07 10:18:02;;;;;;;2.72;1.00;;;16.80;78.10;;;;;;5107095;28;20129;-51
2024/03/07 10:20:28;;;;;;;4.45;1.15;;;16.80;78.40;;;;;;5103302;28;20596;-49
2024/03/07 10:22:56;;;;;;;3.40;1.00;;;16.70;78.60;;;;;;5096648;28;20366;-51
2024/03/07 10:25:27;;;;;;;3.85;1.10;;;16.60;78.90;;;;;;5103878;28;20096;-57
2024/03/07 10:27:54;;;;;;;2.85;1.27;;;16.60;79.30;;;;;;5094322;28;20166;-48
2024/03/07 10:30:20;;;;;;;2.45;1.10;;;16.50;79.60;;;;;;5098719;28;20084;-49
2024/03/07 10:32:58;;;;;;;2.90;0.85;;;16.50;79.80;;;;;;5100561;28;20088;-48
2024/03/07 10:35:25;;;;;;;1.58;0.88;;;16.40;80.00;;;;;;5108056;28;20067;-55
2024/03/07 10:37:56;;;;;;;3.38;1.00;;;16.40;80.30;;;;;;5107450;28;20064;-49
2024/03/07 10:40:25;;;;;;;1.63;0.70;;;16.40;80.30;;;;;;5108421;28;20510;-52
2024/03/07 10:42:57;;;;;;;2.30;1.00;;;16.40;80.80;;;;;;5102522;28;21606;-48
2024/03/07 10:45:26;;;;;;;4.15;0.70;;;16.40;81.00;;;;;;5104222;28;20149;-59
2024/03/07 10:47:57;;;;;;;3.05;0.50;;;16.40;81.20;;;;;;5107947;28;20518;-49
2024/03/07 10:50:40;;;;;;;3.42;1.05;;;16.40;81.50;;;;;;5105367;28;20595;-48
2024/03/07 10:53:31;;;;;;;2.75;0.65;;;16.40;81.70;;;;;;5106950;28;20538;-47
2024/03/07 10:56:06;;;;;;;1.50;0.80;;;16.50;82.20;;;;;;5105813;28;20155;-48
2024/03/07 10:58:42;;;;;;;2.03;0.88;;;16.60;82.10;;;;;;5093333;28;20154;-46
2024/03/07 11:01:14;;;;;;;2.15;0.60;;;16.60;82.40;;;;;;5108454;27;20126;-51
2024/03/07 11:03:42;;;;;;;4.22;0.80;;;16.60;82.60;;;;;;5103601;28;20154;-47
2024/03/07 11:06:11;;;;;;;2.88;0.70;;;16.70;82.70;;;;;;5112237;27;20072;-48
2024/03/07 11:08:38;;;;;;;1.58;0.88;;;16.70;82.90;;;;;;5098947;27;20133;-48
2024/03/07 11:11:06;;;;;;;3.17;1.00;;;16.80;83.20;;;;;;5111430;28;20433;-49
2024/03/07 11:13:34;;;;;;;2.20;0.60;;;16.80;83.20;;;;;;5111757;28;20084;-48
2024/03/07 11:16:03;;;;;;;3.70;1.40;;;16.70;83.00;;;;;;5111503;27;20060;-48
2024/03/07 11:18:29;;;;;;;4.90;1.50;;;16.80;83.60;;;;;;5110902;28;20083;-47
2024/03/07 11:20:57;;;;;;;4.32;1.60;;;16.80;83.40;;;;;;5111606;28;20107;-47
2024/03/07 11:23:49;;;;;;;4.53;1.40;;;16.80;83.20;;;;;;5110781;28;20072;-48
2024/03/07 11:26:16;;;;;;;5.53;1.25;;;16.70;83.20;;;;;;5111716;28;20530;-49
2024/03/07 11:28:43;;;;;;;7.88;1.52;;;16.60;83.50;;;;;;5105281;28;20064;-48
2024/03/07 11:31:28;;;;;;;5.88;3.42;;;16.70;83.30;;;;;;5110873;28;20100;-46
2024/03/07 11:34:14;;;;;;;5.18;1.35;;;16.50;83.70;;;;;;5104247;28;20107;-48
2024/03/07 11:36:45;;;;;;;5.40;1.33;;;16.70;84.10;;;;;;5109683;28;20080;-48
2024/03/07 11:39:51;;;;;;;2.80;1.10;;;16.70;83.90;;;;;;5112009;27;20087;-51
2024/03/07 11:42:33;;;;;;;6.47;1.20;;;16.60;84.70;;;;;;5111125;28;20094;-46
2024/03/07 11:45:03;;;;;;;5.95;1.50;;;16.50;85.40;;;;;;5110670;28;20087;-47
2024/03/07 11:47:39;;;;;;;3.22;1.40;;;16.50;85.80;;;;;;5111019;28;20067;-47
2024/03/07 11:50:11;;;;;;;3.38;1.20;;;16.50;86.90;;;;;;5106344;28;20436;-48
2024/03/07 11:52:46;;;;;;;2.58;1.30;;;16.40;86.70;;;;;;5102511;28;20075;-48
2024/03/07 11:55:12;;;;;;;5.47;1.50;;;16.30;87.70;;;;;;5108787;28;20148;-53
2024/03/07 11:57:40;;;;;;;11.27;1.35;;;16.20;87.20;;;;;;5112029;28;20072;-48
2024/03/07 12:00:10;;;;;;;2.45;1.17;;;16.10;88.00;;;;;;5106111;28;20619;-51
2024/03/07 12:02:40;;;;;;;4.43;1.15;;;16.00;88.70;;;;;;5104467;28;20179;-49
2024/03/07 12:05:07;;;;;;;2.65;1.08;;;16.00;88.90;;;;;;5109315;27;20223;-50
2024/03/07 12:07:34;;;;;;;2.22;1.10;;;15.90;89.80;;;;;;5109204;28;20064;-49
2024/03/07 12:10:03;;;;;;;5.45;1.27;;;15.90;90.10;;;;;;5111309;28;20158;-47
2024/03/07 12:12:30;;;;;;;6.32;1.63;;;15.90;89.80;;;;;;5111084;28;20072;-46
2024/03/07 12:14:58;;;;;;;11.60;4.15;;;15.80;89.90;;;;;;5109310;28;20076;-48
2024/03/07 12:17:25;;;;;;;10.00;4.60;;;15.80;89.30;;;;;;5111448;28;20080;-46
2024/03/07 12:19:51;;;;;;;11.05;3.85;;;15.70;89.20;;;;;;5110206;28;20082;-45
2024/03/07 12:22:24;;;;;;;9.57;4.22;;;15.50;90.10;;;;;;5103714;28;20072;-46
2024/03/07 12:25:08;;;;;;;11.77;4.15;;;15.60;90.10;;;;;;5110751;28;20126;-46
2024/03/07 12:27:34;;;;;;;12.38;4.90;;;15.50;90.40;;;;;;5107376;28;20079;-46
2024/03/07 12:30:07;;;;;;;4.78;1.60;;;15.30;90.60;;;;;;5105507;28;20076;-46
2024/03/07 12:32:34;;;;;;;2.10;0.70;;;15.40;91.00;;;;;;5109852;28;20064;-47
2024/03/07 12:35:00;;;;;;;2.35;0.73;;;15.60;91.10;;;;;;5105423;28;20086;-48
2024/03/07 12:37:29;;;;;;;2.70;0.80;;;15.80;91.10;;;;;;5100291;28;20064;-47
2024/03/07 12:40:05;;;;;;;2.50;0.90;;;15.80;90.80;;;;;;5104124;28;20072;-47
2024/03/07 12:42:32;;;;;;;2.78;0.82;;;15.80;90.70;;;;;;5110264;28;20068;-50
2024/03/07 12:45:04;;;;;;;2.47;1.05;;;15.90;90.70;;;;;;5111195;28;20100;-47
2024/03/07 12:47:31;;;;;;;3.15;1.00;;;16.00;90.70;;;;;;5108040;28;20076;-48
2024/03/07 12:50:00;;;;;;;3.28;0.82;;;16.00;90.60;;;;;;5108634;28;20072;-47
2024/03/07 12:52:27;;;;;;;1.80;0.88;;;16.10;90.60;;;;;;5109366;28;20079;-48